createdAt,value
2023-08-29T08:19:23.322Z,26.94
2023-08-29T08:21:53.622Z,27.07
2023-08-29T08:24:25.967Z,27.33
2023-08-29T08:26:56.337Z,27.34
2023-08-29T08:29:25.745Z,27.58
2023-08-29T08:31:55.287Z,27.66
2023-08-29T08:34:24.440Z,27.80
2023-08-29T08:36:54.538Z,27.87
2023-08-29T08:39:24.147Z,27.95
2023-08-29T08:41:54.624Z,27.89
2023-08-29T08:44:25.549Z,27.88
2023-08-29T08:46:55.645Z,27.76
2023-08-29T08:49:26.232Z,27.70
2023-08-29T08:51:57.575Z,27.48
2023-08-29T08:54:27.992Z,27.35
2023-08-29T08:56:59.874Z,27.33
2023-08-29T08:59:29.415Z,27.30
2023-08-29T09:01:58.935Z,27.34
2023-08-29T09:04:28.763Z,27.37
2023-08-29T09:06:57.841Z,27.22
2023-08-29T09:09:27.596Z,27.08
2023-08-29T09:11:58.840Z,26.91
2023-08-29T09:14:28.885Z,26.70
2023-08-29T09:17:00.609Z,26.43
2023-08-29T09:19:37.016Z,26.14
2023-08-29T09:22:07.711Z,25.98
2023-08-29T09:24:38.170Z,25.76
2023-08-29T09:27:13.412Z,25.53
2023-08-29T09:29:43.383Z,25.47
2023-08-29T09:32:17.912Z,25.44
2023-08-29T09:34:48.786Z,25.31
2023-08-29T09:37:18.411Z,25.24
2023-08-29T09:39:49.656Z,25.29
2023-08-29T09:42:21.208Z,25.27
2023-08-29T09:44:54.403Z,25.11
2023-08-29T09:47:28.913Z,24.89
2023-08-29T09:49:58.961Z,24.74
2023-08-29T09:52:31.221Z,24.56
2023-08-29T09:55:04.833Z,24.38
2023-08-29T09:57:37.474Z,24.18
2023-08-29T10:00:10.800Z,24.10
2023-08-29T10:02:42.187Z,24.04
2023-08-29T10:05:14.357Z,23.99
2023-08-29T10:07:47.186Z,23.91
2023-08-29T10:10:17.522Z,23.98
2023-08-29T10:12:49.766Z,24.02
2023-08-29T10:15:20.030Z,23.91
2023-08-29T10:17:50.653Z,23.88
2023-08-29T10:20:22.890Z,23.96
2023-08-29T10:22:53.688Z,23.98
2023-08-29T10:25:23.729Z,24.07
2023-08-29T10:27:53.302Z,24.14
2023-08-29T10:30:28.292Z,24.21
2023-08-29T10:32:58.641Z,24.25
2023-08-29T10:35:33.317Z,24.33
2023-08-29T10:38:04.021Z,24.33
2023-08-29T10:40:37.597Z,24.37
2023-08-29T10:43:19.848Z,24.46
2023-08-29T10:46:01.745Z,24.61
2023-08-29T10:48:31.882Z,24.66
2023-08-29T10:51:10.827Z,24.90
2023-08-29T10:53:49.336Z,25.20
2023-08-29T10:56:20.046Z,25.53
2023-08-29T10:58:50.040Z,25.85
2023-08-29T11:01:29.650Z,26.25
2023-08-29T11:04:01.789Z,26.76
2023-08-29T11:06:54.160Z,27.23
2023-08-29T11:09:24.904Z,27.87
2023-08-29T11:12:08.523Z,28.81
2023-08-29T11:14:54.020Z,30.40
2023-08-29T11:17:27.686Z,30.98
2023-08-29T11:19:59.513Z,31.35
2023-08-29T11:22:33.256Z,31.76
2023-08-29T11:25:03.445Z,32.07
2023-08-29T11:27:41.017Z,32.82
2023-08-29T11:30:22.533Z,33.42
2023-08-29T11:33:00.772Z,34.45
2023-08-29T11:35:30.579Z,34.95
2023-08-29T11:38:00.676Z,34.84
2023-08-29T11:40:42.089Z,34.30
2023-08-29T11:43:45.262Z,33.17
2023-08-29T11:46:10.871Z,31.84
2023-08-29T11:48:41.038Z,31.05
2023-08-29T11:51:12.394Z,30.30
2023-08-29T11:53:42.130Z,29.58
2023-08-29T11:56:13.584Z,28.76
2023-08-29T11:58:45.809Z,27.95
2023-08-29T12:01:18.239Z,27.08
2023-08-29T12:03:49.285Z,26.09
2023-08-29T12:06:20.658Z,25.17
2023-08-29T12:08:52.639Z,23.82
2023-08-29T12:11:23.625Z,22.76
2023-08-29T12:14:07.328Z,22.24
2023-08-29T12:16:39.575Z,21.72
2023-08-29T12:19:16.988Z,21.49
2023-08-29T12:21:59.259Z,21.32
2023-08-29T12:24:30.227Z,21.09
2023-08-29T12:27:03.103Z,20.93
2023-08-29T12:29:35.059Z,20.80
2023-08-29T12:32:05.022Z,20.69
2023-08-29T12:34:34.742Z,20.57
2023-08-29T12:37:05.202Z,20.58
2023-08-29T12:39:36.858Z,20.69
2023-08-29T12:42:18.923Z,20.82
2023-08-29T12:46:00.078Z,21.11
2023-08-29T12:48:30.990Z,21.32
2023-08-29T12:51:00.786Z,21.56
2023-08-29T12:53:32.456Z,21.74
2023-08-29T12:56:02.031Z,22.16
2023-08-29T12:58:31.307Z,22.66
2023-08-29T13:01:00.697Z,23.06
2023-08-29T13:03:30.030Z,23.88
2023-08-29T13:05:59.694Z,25.54
2023-08-29T13:08:29.015Z,26.46
2023-08-29T13:10:58.572Z,26.93
2023-08-29T13:13:28.845Z,26.98
2023-08-29T13:15:58.506Z,26.90
2023-08-29T13:18:28.874Z,27.05
2023-08-29T13:20:59.530Z,27.37
2023-08-29T13:23:29.368Z,27.41
2023-08-29T13:25:59.014Z,27.74
2023-08-29T13:28:28.992Z,28.08
2023-08-29T13:31:02.884Z,28.48
2023-08-29T13:33:37.495Z,28.95
2023-08-29T13:36:08.420Z,29.29
2023-08-29T13:38:38.192Z,29.03
2023-08-29T13:41:09.464Z,28.42
2023-08-29T13:43:39.971Z,27.75
2023-08-29T13:46:10.921Z,27.27
2023-08-29T13:48:41.375Z,26.71
2023-08-29T13:51:11.214Z,26.06
2023-08-29T13:53:40.438Z,25.27
2023-08-29T13:56:10.379Z,25.41
2023-08-29T13:58:39.895Z,25.89
2023-08-29T14:01:11.416Z,26.20
2023-08-29T14:03:42.453Z,26.37
2023-08-29T14:06:14.373Z,26.54
2023-08-29T14:08:45.350Z,26.79
2023-08-29T14:11:15.195Z,26.88
2023-08-29T14:13:45.276Z,27.10
2023-08-29T14:16:15.598Z,27.37
2023-08-29T14:18:47.452Z,28.08
2023-08-29T14:21:19.509Z,28.54
2023-08-29T14:23:48.714Z,28.75
2023-08-29T14:26:18.581Z,28.93
2023-08-29T14:28:48.088Z,28.77
2023-08-29T14:31:26.511Z,28.50
2023-08-29T14:33:56.520Z,28.16
2023-08-29T14:36:26.524Z,28.42
2023-08-29T14:38:57.953Z,28.87
2023-08-29T14:41:28.684Z,28.98
2023-08-29T14:43:58.159Z,28.74
2023-08-29T14:46:27.461Z,28.37
2023-08-29T14:48:57.671Z,28.11
2023-08-29T14:51:27.856Z,27.75
2023-08-29T14:53:58.565Z,27.32
2023-08-29T14:56:28.453Z,26.90
2023-08-29T14:58:58.747Z,26.54
2023-08-29T15:01:28.609Z,26.23
2023-08-29T15:03:57.851Z,25.96
2023-08-29T15:06:27.873Z,25.78
2023-08-29T15:08:57.787Z,25.65
2023-08-29T15:11:27.136Z,25.60
2023-08-29T15:13:57.337Z,25.57
2023-08-29T15:16:26.524Z,25.54
2023-08-29T15:18:56.488Z,25.49
2023-08-29T15:21:26.474Z,25.56
2023-08-29T15:23:56.014Z,25.60
2023-08-29T15:26:25.454Z,25.61
2023-08-29T15:28:55.210Z,25.68
2023-08-29T15:31:24.575Z,25.77
2023-08-29T15:33:53.973Z,25.82
2023-08-29T15:36:26.803Z,25.89
2023-08-29T15:38:56.093Z,25.92
2023-08-29T15:41:25.680Z,25.88
2023-08-29T15:43:54.999Z,25.86
2023-08-29T15:46:24.497Z,26.09
2023-08-29T15:48:53.782Z,26.34
2023-08-29T15:51:22.690Z,26.60
2023-08-29T15:53:53.618Z,26.54
2023-08-29T15:56:23.218Z,26.38
2023-08-29T15:58:52.953Z,26.47
2023-08-29T16:01:23.172Z,26.53
2023-08-29T16:03:53.713Z,26.44
2023-08-29T16:06:23.738Z,26.27
2023-08-29T16:08:53.767Z,26.26
2023-08-29T16:11:24.522Z,26.08
2023-08-29T16:13:55.820Z,25.88
2023-08-29T16:16:27.025Z,25.80
2023-08-29T16:18:57.433Z,25.65
2023-08-29T16:21:27.001Z,25.46
2023-08-29T16:23:57.447Z,25.35
2023-08-29T16:26:27.159Z,25.30
2023-08-29T16:28:57.672Z,25.22
2023-08-29T16:31:27.810Z,25.06
2023-08-29T16:33:57.709Z,24.92
2023-08-29T16:36:27.106Z,24.80
2023-08-29T16:38:56.656Z,24.67
2023-08-29T16:41:25.998Z,24.57
2023-08-29T16:43:58.424Z,24.48
2023-08-29T16:46:28.727Z,24.45
2023-08-29T16:48:58.065Z,24.48
2023-08-29T16:51:27.352Z,24.50
2023-08-29T16:53:56.395Z,24.57
2023-08-29T16:56:25.955Z,24.54
2023-08-29T16:58:55.347Z,24.50
2023-08-29T17:01:25.068Z,24.40
2023-08-29T17:03:56.138Z,24.30
2023-08-29T17:06:26.194Z,24.21
2023-08-29T17:08:57.182Z,24.08
2023-08-29T17:11:26.520Z,23.96
2023-08-29T17:13:56.114Z,23.89
2023-08-29T17:16:26.231Z,23.82
2023-08-29T17:18:57.740Z,23.81
2023-08-29T17:21:27.185Z,23.74
2023-08-29T17:23:56.937Z,23.65
2023-08-29T17:26:26.822Z,23.61
2023-08-29T17:28:57.402Z,23.53
2023-08-29T17:31:28.649Z,23.46
2023-08-29T17:33:58.161Z,23.36
2023-08-29T17:36:27.441Z,23.18
2023-08-29T17:38:56.671Z,23.06
2023-08-29T17:41:27.682Z,22.93
2023-08-29T17:43:57.668Z,22.74
2023-08-29T17:46:27.362Z,22.59
2023-08-29T17:48:57.615Z,22.49
2023-08-29T17:51:27.411Z,22.41
2023-08-29T17:53:57.153Z,22.34
2023-08-29T17:56:26.943Z,22.29
2023-08-29T17:58:56.991Z,22.19
2023-08-29T18:01:26.579Z,22.15
2023-08-29T18:03:57.931Z,22.11
2023-08-29T18:06:29.239Z,22.08
2023-08-29T18:08:59.821Z,22.06
2023-08-29T18:11:31.970Z,22.00
2023-08-29T18:14:03.216Z,21.96
2023-08-29T18:16:33.197Z,21.92
2023-08-29T18:19:04.174Z,21.88
2023-08-29T18:21:35.434Z,21.84
2023-08-29T18:24:08.214Z,21.80
2023-08-29T18:26:39.022Z,21.68
2023-08-29T18:29:09.038Z,21.57
2023-08-29T18:31:39.867Z,21.53
2023-08-29T18:34:10.436Z,21.47
2023-08-29T18:36:40.054Z,21.36
2023-08-29T18:39:10.454Z,21.30
2023-08-29T18:41:40.486Z,21.31
2023-08-29T18:44:10.476Z,21.28
2023-08-29T18:46:39.607Z,21.19
2023-08-29T18:49:09.877Z,21.16
2023-08-29T18:51:39.700Z,21.05
2023-08-29T18:54:09.720Z,20.98
2023-08-29T18:56:39.514Z,20.98
2023-08-29T18:59:09.253Z,20.99
2023-08-29T19:01:39.113Z,20.97
2023-08-29T19:04:09.054Z,20.95
2023-08-29T19:06:39.227Z,20.91
2023-08-29T19:09:09.552Z,20.90
2023-08-29T19:11:39.516Z,20.92
2023-08-29T19:14:09.448Z,20.94
2023-08-29T19:16:39.689Z,20.94
2023-08-29T19:19:13.867Z,20.92
2023-08-29T19:21:43.853Z,20.89
2023-08-29T19:24:14.383Z,20.85
2023-08-29T19:26:44.967Z,20.81
2023-08-29T19:29:17.894Z,20.81
2023-08-29T19:31:51.932Z,20.76
2023-08-29T19:34:23.696Z,20.69
2023-08-29T19:36:55.699Z,20.67
2023-08-29T19:39:26.688Z,20.73
2023-08-29T19:41:58.320Z,20.74
2023-08-29T19:44:29.999Z,20.75
2023-08-29T19:47:04.714Z,20.74
2023-08-29T19:49:40.895Z,20.75
2023-08-29T19:52:11.875Z,20.76
2023-08-29T19:54:42.324Z,20.80
2023-08-29T19:57:12.187Z,20.81
2023-08-29T19:59:42.410Z,20.79
2023-08-29T20:02:14.595Z,20.74
2023-08-29T20:04:46.308Z,20.70
2023-08-29T20:07:16.654Z,20.68
2023-08-29T20:09:46.718Z,20.64
2023-08-29T20:12:16.960Z,20.67
2023-08-29T20:14:46.780Z,20.72
2023-08-29T20:17:16.702Z,20.70
2023-08-29T20:19:46.368Z,20.62
2023-08-29T20:22:15.650Z,20.59
2023-08-29T20:24:46.655Z,20.57
2023-08-29T20:27:18.136Z,20.55
2023-08-29T20:29:52.753Z,20.56
2023-08-29T20:32:23.844Z,20.52
2023-08-29T20:34:55.097Z,20.49
2023-08-29T20:37:24.913Z,20.47
2023-08-29T20:39:54.580Z,20.48
2023-08-29T20:42:24.427Z,20.47
2023-08-29T20:44:56.273Z,20.46
2023-08-29T20:47:26.879Z,20.53
2023-08-29T20:49:56.578Z,20.58
2023-08-29T20:52:27.615Z,20.61
2023-08-29T20:54:57.396Z,20.58
2023-08-29T20:57:26.689Z,20.58
2023-08-29T20:59:56.363Z,20.50
2023-08-29T21:02:26.814Z,20.42
2023-08-29T21:04:56.114Z,20.35
2023-08-29T21:07:25.739Z,20.29
2023-08-29T21:09:55.426Z,20.31
2023-08-29T21:12:26.315Z,20.31
2023-08-29T21:14:55.765Z,20.34
2023-08-29T21:17:28.000Z,20.34
2023-08-29T21:19:57.827Z,20.32
2023-08-29T21:22:27.407Z,20.33
2023-08-29T21:24:56.677Z,20.32
2023-08-29T21:27:26.728Z,20.29
2023-08-29T21:29:56.117Z,20.25
2023-08-29T21:32:25.443Z,20.16
2023-08-29T21:34:54.575Z,20.13
2023-08-29T21:37:23.932Z,20.08
2023-08-29T21:39:53.427Z,20.03
2023-08-29T21:42:22.906Z,20.04
2023-08-29T21:44:53.137Z,20.04
2023-08-29T21:47:22.447Z,20.07
2023-08-29T21:49:51.662Z,20.08
2023-08-29T21:52:21.040Z,20.16
2023-08-29T21:54:50.554Z,20.22
2023-08-29T21:57:19.836Z,20.31
2023-08-29T21:59:48.903Z,20.33
2023-08-29T22:02:18.139Z,20.31
2023-08-29T22:04:50.182Z,20.27
2023-08-29T22:07:19.597Z,20.26
2023-08-29T22:09:48.752Z,20.25
2023-08-29T22:12:18.526Z,20.26
2023-08-29T22:14:47.979Z,20.29
2023-08-29T22:17:16.948Z,20.34
2023-08-29T22:19:45.939Z,20.38
2023-08-29T22:22:14.988Z,20.30
2023-08-29T22:24:44.833Z,20.27
2023-08-29T22:27:13.964Z,20.32
2023-08-29T22:29:43.187Z,20.32
2023-08-29T22:32:12.779Z,20.30
2023-08-29T22:34:43.234Z,20.24
2023-08-29T22:37:14.313Z,20.14
2023-08-29T22:39:44.317Z,20.03
2023-08-29T22:42:14.401Z,19.94
2023-08-29T22:44:47.202Z,19.86
2023-08-29T22:47:17.079Z,19.75
2023-08-29T22:49:47.327Z,19.63
2023-08-29T22:52:19.058Z,19.54
2023-08-29T22:54:48.291Z,19.49
2023-08-29T22:57:18.811Z,19.47
2023-08-29T22:59:49.253Z,19.45
2023-08-29T23:02:18.884Z,19.51
2023-08-29T23:04:48.511Z,19.62
2023-08-29T23:07:17.807Z,19.70
2023-08-29T23:09:48.460Z,19.71
2023-08-29T23:12:18.351Z,19.72
2023-08-29T23:14:48.066Z,19.75
2023-08-29T23:17:18.593Z,19.81
2023-08-29T23:19:47.997Z,19.87
2023-08-29T23:22:17.275Z,19.90
2023-08-29T23:24:47.327Z,19.91
2023-08-29T23:27:16.899Z,19.96
2023-08-29T23:29:46.541Z,20.01
2023-08-29T23:32:16.590Z,20.05
2023-08-29T23:34:47.346Z,20.07
2023-08-29T23:37:16.967Z,20.05
2023-08-29T23:39:46.509Z,20.06
2023-08-29T23:42:17.140Z,20.07
2023-08-29T23:44:46.272Z,20.05
2023-08-29T23:47:15.755Z,20.05
2023-08-29T23:49:46.498Z,20.05
2023-08-29T23:52:15.984Z,20.05
2023-08-29T23:54:45.413Z,20.02
2023-08-29T23:57:14.611Z,19.98
2023-08-29T23:59:43.920Z,19.96
